Impacts METAR Board
IDs:

KCLE - Cleveland/Hopkins In, OH, US

Updated at: 0900 UTC 17 Feb 2019
Potential Impact None Slight Moderate High
Time 16/21Z 16/22Z 16/23Z 17/00Z 17/01Z 17/02Z 17/03Z 17/04Z 17/05Z 17/06Z 17/07Z 17/08Z 17/09Z
Temp27 27 27 27 27 27 27 27 26 27 26 26 26
Dewpt19 18 18 18 19 18 19 18 18 18 18 16 16
Altim30.09 30.08 30.09 30.11 30.11 30.10 30.12 30.12 30.12 30.08 30.07 30.07 30.06
VIS10 10 10 10 10 10 10 10 10 10 10 10 10
CIG17 21 21 19 18 19 20 21 21 21 20 22 23
CoverOVCOVCOVCOVCOVCOVCOVCOVCOVCOVCOVCOVCOVC
FltCatMVFRMVFRMVFRMVFRMVFRMVFRMVFRMVFRMVFRMVFRMVFRMVFRMVFR
WX--------------------------
WDir2030203030506090901009080120
WSpd8 7 10 8 9 8 9 4 5 10 7 10 8
WGst-- -- -- -- -- -- -- -- -- -- -- -- --
Raw hourly METARs
KCLE 162051Z 02008KT 10SM OVC017 M03/M07 A3009 RMK AO2 SLP200 T10281072 50002
KCLE 162151Z 03007KT 10SM OVC021 M03/M08 A3008 RMK AO2 SLP197 T10281078
KCLE 162251Z 02010KT 10SM OVC021 M03/M08 A3009 RMK AO2 SLP201 T10281078
KCLE 162351Z 03008KT 10SM OVC019 M03/M08 A3011 RMK AO2 SLP205 T10281078 11022 21033 53005
KCLE 170051Z 03009KT 10SM OVC018 M03/M07 A3011 RMK AO2 SLP207 T10281072
KCLE 170151Z 05008KT 10SM OVC019 M03/M08 A3010 RMK AO2 SLP204 T10281078
KCLE 170251Z 06009KT 10SM OVC020 M03/M07 A3012 RMK AO2 SLP208 T10281072 53004
KCLE 170351Z 09004KT 10SM OVC021 M03/M08 A3012 RMK AO2 SLP210 T10281078
KCLE 170451Z 09005KT 10SM OVC021 M03/M08 A3012 RMK AO2 SLP210 T10331078 410221044
KCLE 170551Z 10010KT 10SM OVC021 M03/M08 A3008 RMK AO2 SLP194 T10281078 11028 21033 58013
KCLE 170651Z 09007KT 10SM OVC020 M03/M08 A3007 RMK AO2 SLP193 T10331078
KCLE 170751Z 08010KT 10SM OVC022 M03/M09 A3007 RMK AO2 SLP192 T10331089
KCLE 170851Z 12008KT 10SM OVC023 M03/M09 A3006 RMK AO2 SLP187 T10331089 58007



Page loaded:  09:36 UTC  |   01:36 AM Pacific  |   02:36 AM Mountain  |   03:36 AM Central  |   04:36 AM Eastern

 

ADVISORIES

FORECASTS

FORECASTS

OBSERVATIONS

USER TOOLS

ABOUT US